createdAt,value
2023-03-21T00:01:05.268Z,100313.34
2023-03-21T00:03:34.177Z,100321.09
2023-03-21T00:06:09.443Z,100310.81
2023-03-21T00:08:36.470Z,100313.38
2023-03-21T00:11:06.340Z,100319.41
2023-03-21T00:13:38.551Z,100313.38
2023-03-21T00:16:16.123Z,100310.81
2023-03-21T00:18:52.775Z,100303.06
2023-03-21T00:24:09.453Z,100304.81
2023-03-21T00:26:38.390Z,100302.22
2023-03-21T00:29:05.520Z,100300.50
2023-03-21T00:31:32.591Z,100294.47
2023-03-21T00:34:00.116Z,100296.22
2023-03-21T00:36:27.192Z,100307.38
2023-03-21T00:38:54.563Z,100297.06
2023-03-21T00:41:39.137Z,100302.22
2023-03-21T00:44:09.626Z,100302.22
2023-03-21T00:46:45.561Z,100300.50
2023-03-21T00:49:16.262Z,100299.63
2023-03-21T00:51:43.938Z,100298.75
2023-03-21T00:54:12.850Z,100306.50
2023-03-21T00:56:41.241Z,100303.06
2023-03-21T00:59:08.255Z,100308.22
2023-03-21T01:01:36.637Z,100307.34
2023-03-21T01:04:10.961Z,100295.31
2023-03-21T01:06:39.725Z,100300.47
2023-03-21T01:09:08.181Z,100295.31
2023-03-21T01:11:36.559Z,100300.47
2023-03-21T01:14:20.846Z,100293.59
2023-03-21T01:16:50.408Z,100298.75
2023-03-21T01:19:27.444Z,100291.91
2023-03-21T01:21:56.051Z,100293.59
2023-03-21T01:24:24.242Z,100295.31
2023-03-21T01:26:51.276Z,100303.88
2023-03-21T01:29:18.509Z,100297.00
2023-03-21T01:31:45.710Z,100285.81
2023-03-21T01:34:12.884Z,100288.41
2023-03-21T01:36:40.119Z,100289.28
2023-03-21T01:39:11.615Z,100286.72
2023-03-21T01:41:44.670Z,100288.44
2023-03-21T01:44:54.585Z,100287.56
2023-03-21T01:47:22.088Z,100286.72
2023-03-21T01:50:03.603Z,100286.69
2023-03-21T01:52:42.040Z,100281.56
2023-03-21T01:55:17.272Z,100281.56
2023-03-21T01:58:05.826Z,100278.16
2023-03-21T02:00:57.041Z,100276.41
2023-03-21T02:03:38.737Z,100278.97
2023-03-21T02:06:38.544Z,100282.41
2023-03-21T02:09:28.246Z,100285.84
2023-03-21T02:11:55.933Z,100285.00
2023-03-21T02:14:29.653Z,100292.66
2023-03-21T02:17:40.148Z,100284.09
2023-03-21T02:20:35.377Z,100298.69
2023-03-21T02:23:32.598Z,100293.53
2023-03-21T02:26:41.256Z,100294.38
2023-03-21T02:29:18.038Z,100290.09
2023-03-21T02:32:22.678Z,100290.13
2023-03-21T02:35:26.615Z,100293.53
2023-03-21T02:38:00.777Z,100292.66
2023-03-21T02:40:38.025Z,100290.97
2023-03-21T02:43:22.487Z,100295.28
2023-03-21T02:46:07.763Z,100288.41
2023-03-21T02:48:50.238Z,100300.44
2023-03-21T02:51:22.725Z,100299.53
2023-03-21T02:54:26.438Z,100296.97
2023-03-21T02:56:53.819Z,100293.53
2023-03-21T02:59:25.278Z,100295.25
2023-03-21T03:01:56.435Z,100295.25
2023-03-21T03:04:29.536Z,100298.69
2023-03-21T03:06:58.863Z,100299.53
2023-03-21T03:09:49.644Z,100302.13
2023-03-21T03:12:19.310Z,100298.69
2023-03-21T03:15:04.430Z,100302.97
2023-03-21T03:17:51.030Z,100264.31
2023-03-21T03:20:18.216Z,100302.13
2023-03-21T03:22:55.037Z,100303.81
2023-03-21T03:25:49.133Z,100303.81
2023-03-21T03:28:23.251Z,100303.81
2023-03-21T03:31:08.246Z,100299.56
2023-03-21T03:33:48.433Z,100290.94
2023-03-21T03:36:33.578Z,100267.72
2023-03-21T03:39:09.177Z,100295.25
2023-03-21T03:42:15.445Z,100262.56
2023-03-21T03:44:53.534Z,100296.97
2023-03-21T03:47:38.031Z,100302.13
2023-03-21T03:50:41.160Z,100307.25
2023-03-21T03:53:46.791Z,100302.13
2023-03-21T03:56:14.595Z,100302.94
2023-03-21T03:58:45.995Z,100307.25
2023-03-21T04:01:17.748Z,100308.97
2023-03-21T04:03:52.967Z,100307.28
2023-03-21T04:06:29.058Z,100307.25
2023-03-21T04:08:57.262Z,100296.09
2023-03-21T04:11:24.493Z,100312.38
2023-03-21T04:13:53.997Z,100313.22
2023-03-21T04:16:23.594Z,100310.66
2023-03-21T04:18:52.631Z,100315.78
2023-03-21T04:21:20.115Z,100311.50
2023-03-21T04:23:47.106Z,100312.34
2023-03-21T04:26:14.173Z,100319.25
2023-03-21T04:28:51.423Z,100318.38
2023-03-21T04:31:26.001Z,100315.78
2023-03-21T04:34:05.990Z,100322.66
2023-03-21T04:36:39.431Z,100324.38
2023-03-21T04:39:12.663Z,100323.50
2023-03-21T04:41:42.655Z,100325.22
2023-03-21T04:44:11.888Z,100324.34
2023-03-21T04:46:40.253Z,100323.50
2023-03-21T04:49:08.547Z,100323.50
2023-03-21T04:51:36.286Z,100329.47
2023-03-21T04:56:36.403Z,100331.22
2023-03-21T04:59:11.678Z,100326.91
2023-03-21T05:01:41.347Z,100328.66
2023-03-21T05:04:10.519Z,100332.94
2023-03-21T05:06:38.421Z,100320.91
2023-03-21T05:09:07.205Z,100325.16
2023-03-21T05:11:38.043Z,100332.06
2023-03-21T05:14:06.565Z,100289.88
2023-03-21T05:16:34.902Z,100331.16
2023-03-21T05:19:06.247Z,100329.44
2023-03-21T05:21:42.224Z,100336.34
2023-03-21T05:24:20.147Z,100329.47
2023-03-21T05:26:52.526Z,100344.09
2023-03-21T05:29:23.088Z,100335.50
2023-03-21T05:31:56.502Z,100343.22
2023-03-21T05:34:24.665Z,100343.22
2023-03-21T05:36:52.036Z,100333.75
2023-03-21T05:39:20.057Z,100345.78
2023-03-21T05:41:59.296Z,100351.81
2023-03-21T05:44:27.215Z,100348.38
2023-03-21T05:46:54.365Z,100355.25
2023-03-21T05:49:27.310Z,100355.28
2023-03-21T05:51:58.716Z,100364.69
2023-03-21T05:54:25.930Z,100362.97
2023-03-21T05:56:52.997Z,100353.53
2023-03-21T05:59:42.801Z,100350.06
2023-03-21T06:02:09.879Z,100363.84
2023-03-21T06:04:37.573Z,100350.97
2023-03-21T06:07:04.816Z,100357.84
2023-03-21T06:09:32.288Z,100358.72
2023-03-21T06:12:01.998Z,100359.56
2023-03-21T06:14:39.393Z,100363.84
2023-03-21T06:17:29.570Z,100365.56
2023-03-21T06:20:02.238Z,100372.41
2023-03-21T06:22:32.790Z,100376.72
2023-03-21T06:25:00.887Z,100368.97
2023-03-21T06:27:28.722Z,100370.72
2023-03-21T06:29:58.165Z,100369.88
2023-03-21T06:32:26.702Z,100382.78
2023-03-21T06:35:02.228Z,100375.97
2023-03-21T06:37:29.278Z,100374.22
2023-03-21T06:39:56.895Z,100377.69
2023-03-21T06:42:24.445Z,100355.31
2023-03-21T06:44:53.211Z,100375.13
2023-03-21T06:47:21.068Z,100381.16
2023-03-21T06:49:48.098Z,100386.31
2023-03-21T06:52:15.149Z,100366.56
2023-03-21T06:54:43.276Z,100379.47
2023-03-21T06:57:13.619Z,100377.78
2023-03-21T06:59:42.147Z,100382.94
2023-03-21T07:02:16.128Z,100384.66
2023-03-21T07:04:54.463Z,100385.53
2023-03-21T07:07:26.495Z,100386.38
2023-03-21T07:09:53.561Z,100393.28
2023-03-21T07:12:20.942Z,100395.84
2023-03-21T07:15:09.281Z,100396.69
2023-03-21T07:17:37.585Z,100393.25
2023-03-21T07:20:13.316Z,100407.00
2023-03-21T07:22:41.155Z,100401.84
2023-03-21T07:25:09.320Z,100392.41
2023-03-21T07:27:41.244Z,100403.53
2023-03-21T07:30:10.540Z,100411.31
2023-03-21T07:32:38.253Z,100413.91
2023-03-21T07:35:12.110Z,100413.91
2023-03-21T07:37:40.407Z,100413.09
2023-03-21T07:40:13.373Z,100416.53
2023-03-21T07:42:42.048Z,100423.44
2023-03-21T07:45:16.557Z,100415.72
2023-03-21T07:47:45.837Z,100415.72
2023-03-21T07:50:13.607Z,100416.56
2023-03-21T07:52:40.577Z,100420.00
2023-03-21T07:55:08.231Z,100421.72
2023-03-21T07:57:35.779Z,100425.97
2023-03-21T08:00:05.563Z,100429.41
2023-03-21T08:02:40.265Z,100431.13
2023-03-21T08:05:08.307Z,100429.44
2023-03-21T08:07:35.277Z,100436.28
2023-03-21T08:10:02.338Z,100436.28
2023-03-21T08:12:29.375Z,100443.13
2023-03-21T08:14:57.011Z,100438.81
2023-03-21T08:17:25.633Z,100446.59
2023-03-21T08:19:52.651Z,100448.34
2023-03-21T08:22:19.721Z,100448.34
2023-03-21T08:24:46.748Z,100441.53
2023-03-21T08:27:14.167Z,100448.44
2023-03-21T08:29:42.530Z,100452.72
2023-03-21T08:32:09.513Z,100423.44
2023-03-21T08:34:36.734Z,100450.13
2023-03-21T08:37:04.450Z,100458.69
2023-03-21T08:39:31.468Z,100450.06
2023-03-21T08:41:58.643Z,100463.81
2023-03-21T08:44:26.172Z,100465.50
2023-03-21T08:46:53.661Z,100470.66
2023-03-21T08:49:20.885Z,100451.75
2023-03-21T08:51:47.897Z,100465.53
2023-03-21T08:54:22.124Z,100458.69
2023-03-21T08:56:49.609Z,100472.47
2023-03-21T08:59:16.684Z,100469.06
2023-03-21T09:01:43.723Z,100474.22
2023-03-21T09:04:11.271Z,100473.34
2023-03-21T09:06:41.160Z,100474.22
2023-03-21T09:09:09.487Z,100472.47
2023-03-21T09:11:36.635Z,100481.06
2023-03-21T09:14:03.707Z,100476.78
2023-03-21T09:16:31.465Z,100473.34
2023-03-21T09:18:59.378Z,100483.69
2023-03-21T09:21:28.219Z,100486.28
2023-03-21T09:23:58.711Z,100488.00
2023-03-21T09:26:27.990Z,100476.81
2023-03-21T09:28:56.511Z,100489.75
2023-03-21T09:31:23.771Z,100486.28
2023-03-21T09:33:52.420Z,100482.84
2023-03-21T09:36:21.251Z,100493.16
2023-03-21T09:38:50.196Z,100494.88
2023-03-21T09:41:29.284Z,100498.34
2023-03-21T09:44:04.979Z,100479.38
2023-03-21T09:46:39.079Z,100486.25
2023-03-21T09:49:13.114Z,100475.06
2023-03-21T09:51:46.256Z,100491.41
2023-03-21T09:54:34.023Z,100486.22
2023-03-21T09:57:21.070Z,100495.66
2023-03-21T09:59:50.713Z,100488.75
2023-03-21T10:02:36.928Z,100491.34
2023-03-21T10:05:13.257Z,100482.75
2023-03-21T10:07:47.886Z,100477.63
2023-03-21T10:10:27.791Z,100477.63
2023-03-21T10:12:56.396Z,100484.53
2023-03-21T10:15:26.298Z,100494.00
2023-03-21T10:18:01.258Z,100488.84
2023-03-21T10:20:34.325Z,100481.97
2023-03-21T10:23:06.802Z,100489.72
2023-03-21T10:25:41.305Z,100493.16
2023-03-21T10:28:15.508Z,100493.16
2023-03-21T10:30:54.027Z,100493.16
2023-03-21T10:33:24.896Z,100494.88
2023-03-21T10:35:55.714Z,100498.31
2023-03-21T10:38:25.670Z,100492.25
2023-03-21T10:40:53.226Z,100490.53
2023-03-21T10:43:26.124Z,100491.38
2023-03-21T10:45:55.099Z,100491.41
2023-03-21T10:48:23.203Z,100489.66
2023-03-21T10:50:54.544Z,100486.22
2023-03-21T10:53:35.438Z,100494.81
2023-03-21T10:56:06.772Z,100483.63
2023-03-21T10:58:39.640Z,100487.09
2023-03-21T11:01:14.912Z,100493.97
2023-03-21T11:03:47.069Z,100481.06
2023-03-21T11:06:26.674Z,100484.50
2023-03-21T11:09:02.582Z,100491.38
2023-03-21T11:11:40.676Z,100487.88
2023-03-21T11:14:24.031Z,100480.09
2023-03-21T11:16:51.776Z,100474.00
2023-03-21T11:19:39.227Z,100475.69
2023-03-21T11:22:08.382Z,100475.63
2023-03-21T11:24:36.758Z,100475.63
2023-03-21T11:27:08.324Z,100481.66
2023-03-21T11:29:39.103Z,100482.56
2023-03-21T11:32:21.802Z,100482.59
2023-03-21T11:35:11.151Z,100477.44
2023-03-21T11:37:47.836Z,100485.22
2023-03-21T11:40:26.192Z,100469.66
2023-03-21T11:42:56.084Z,100472.22
2023-03-21T11:45:29.441Z,100468.72
2023-03-21T11:47:58.804Z,100466.84
2023-03-21T11:50:35.321Z,100464.16
2023-03-21T11:53:32.193Z,100459.81
2023-03-21T11:55:59.260Z,100452.94
2023-03-21T11:59:01.729Z,100459.84
2023-03-21T12:02:12.876Z,100450.38
2023-03-21T12:04:57.485Z,100455.59
2023-03-21T12:07:24.511Z,100458.19
2023-03-21T12:10:11.022Z,100447.91
2023-03-21T12:13:35.571Z,100448.78
2023-03-21T12:16:09.443Z,100445.34
2023-03-21T12:18:51.409Z,100443.66
2023-03-21T12:21:40.820Z,100437.66
2023-03-21T12:24:41.838Z,100433.28
2023-03-21T12:27:30.471Z,100420.34
2023-03-21T12:30:32.077Z,100425.38
2023-03-21T12:33:25.249Z,100421.78
2023-03-21T12:36:13.233Z,100419.91
2023-03-21T12:38:51.606Z,100417.25
2023-03-21T12:41:25.725Z,100418.09
2023-03-21T12:44:03.816Z,100412.81
2023-03-21T12:46:40.485Z,100409.34
2023-03-21T12:49:33.897Z,100402.56
2023-03-21T12:52:12.335Z,100410.06
2023-03-21T12:54:49.554Z,100402.19
2023-03-21T12:57:23.533Z,100402.06
2023-03-21T13:00:00.086Z,100392.41
2023-03-21T13:02:31.972Z,100394.03
2023-03-21T13:05:07.176Z,100386.19
2023-03-21T13:07:42.589Z,100393.06
2023-03-21T13:10:16.580Z,100386.25
2023-03-21T13:13:02.113Z,100394.13
2023-03-21T13:15:48.684Z,100393.28
2023-03-21T13:18:34.129Z,100388.88
2023-03-21T13:21:21.410Z,100388.78
2023-03-21T13:24:16.504Z,100383.44
2023-03-21T13:26:51.435Z,100386.94
2023-03-21T13:29:28.733Z,100374.91
2023-03-21T13:32:08.262Z,100377.53
2023-03-21T13:34:38.316Z,100372.38
2023-03-21T13:37:05.696Z,100371.47
2023-03-21T13:39:32.920Z,100370.50
2023-03-21T13:42:05.959Z,100364.47
2023-03-21T13:44:42.191Z,100360.22
2023-03-21T13:48:06.600Z,100363.84
2023-03-21T13:51:00.730Z,100371.06
2023-03-21T13:53:40.602Z,100366.88
2023-03-21T13:56:12.223Z,100367.81
2023-03-21T13:58:45.082Z,100360.88
2023-03-21T14:01:27.357Z,100355.69
2023-03-21T14:04:01.430Z,100353.97
2023-03-21T14:06:54.340Z,100357.50
2023-03-21T14:09:24.936Z,100362.69
2023-03-21T14:11:56.602Z,100357.50
2023-03-21T14:14:30.107Z,100352.28
2023-03-21T14:16:57.249Z,100347.00
2023-03-21T14:19:33.029Z,100341.03
2023-03-21T14:22:00.106Z,100348.72
2023-03-21T14:24:27.171Z,100338.34
2023-03-21T14:26:56.122Z,100341.72
2023-03-21T14:29:31.884Z,100346.06
2023-03-21T14:32:00.485Z,100341.03
2023-03-21T14:34:30.849Z,100348.84
2023-03-21T14:36:58.924Z,100345.53
2023-03-21T14:39:33.673Z,100331.81
2023-03-21T14:42:09.663Z,100342.16
2023-03-21T14:44:57.040Z,100337.00
2023-03-21T14:47:27.941Z,100334.47
2023-03-21T14:49:56.566Z,100330.22
2023-03-21T14:52:31.856Z,100330.28
2023-03-21T14:55:01.042Z,100332.81
2023-03-21T14:57:31.461Z,100325.91
2023-03-21T15:00:01.983Z,100331.91
2023-03-21T15:02:39.011Z,100315.53
2023-03-21T15:05:29.269Z,100318.97
2023-03-21T15:07:59.905Z,100320.75
2023-03-21T15:10:30.983Z,100311.25
2023-03-21T15:13:01.479Z,100307.81
2023-03-21T15:15:30.156Z,100307.00
2023-03-21T15:18:03.676Z,100309.66
2023-03-21T15:20:34.373Z,100308.78
2023-03-21T15:23:12.164Z,100308.78
2023-03-21T15:25:40.330Z,100307.91
2023-03-21T15:28:07.736Z,100311.34
2023-03-21T15:30:35.638Z,100297.72
2023-03-21T15:33:09.479Z,100313.16
2023-03-21T15:35:41.196Z,100311.50
2023-03-21T15:38:36.715Z,100302.91
2023-03-21T15:41:22.017Z,100304.66
2023-03-21T15:44:09.320Z,100306.47
2023-03-21T15:46:43.767Z,100309.09
2023-03-21T15:49:13.642Z,100310.00
2023-03-21T15:51:46.792Z,100311.75
2023-03-21T15:54:19.266Z,100304.88
2023-03-21T15:56:46.467Z,100301.44
2023-03-21T15:59:18.303Z,100310.94
2023-03-21T16:01:49.944Z,100310.97
2023-03-21T16:04:20.577Z,100307.56
2023-03-21T16:07:05.411Z,100308.44
2023-03-21T16:09:42.799Z,100304.16
2023-03-21T16:12:12.901Z,100311.88
2023-03-21T16:14:40.699Z,100317.06
2023-03-21T16:17:35.748Z,100306.78
2023-03-21T16:20:03.651Z,100315.38
2023-03-21T16:22:35.032Z,100318.84
2023-03-21T16:25:02.134Z,100313.75
2023-03-21T16:27:29.204Z,100322.34
2023-03-21T16:29:56.381Z,100312.03
2023-03-21T16:32:24.156Z,100312.88
2023-03-21T16:34:53.879Z,100315.50
2023-03-21T16:37:21.703Z,100315.50
2023-03-21T16:39:48.869Z,100313.81
2023-03-21T16:42:16.186Z,100322.44
2023-03-21T16:44:43.255Z,100313.84
2023-03-21T16:47:17.050Z,100320.75
2023-03-21T16:49:44.940Z,100310.44
2023-03-21T16:52:13.175Z,100316.47
2023-03-21T16:54:41.457Z,100317.34
2023-03-21T16:57:19.752Z,100317.38
2023-03-21T16:59:46.795Z,100315.69
2023-03-21T17:02:17.067Z,100313.97
2023-03-21T17:04:44.751Z,100317.44
2023-03-21T17:07:16.723Z,100320.88
2023-03-21T17:09:44.017Z,100321.75
2023-03-21T17:12:13.959Z,100320.91
2023-03-21T17:14:45.475Z,100320.09
2023-03-21T17:17:17.167Z,100316.66
2023-03-21T17:19:44.179Z,100309.78
2023-03-21T17:22:13.416Z,100314.94
2023-03-21T17:24:41.581Z,100314.97
2023-03-21T17:27:08.874Z,100313.25
2023-03-21T17:29:35.941Z,100308.97
2023-03-21T17:32:03.150Z,100317.59
2023-03-21T17:34:32.707Z,100310.69
2023-03-21T17:36:59.753Z,100321.03
2023-03-21T17:39:28.828Z,100319.31
2023-03-21T17:41:57.065Z,100327.91
2023-03-21T17:44:24.117Z,100321.91
2023-03-21T17:46:52.234Z,100321.06
2023-03-21T17:49:20.185Z,100318.50
2023-03-21T17:51:47.263Z,100319.34
2023-03-21T17:54:14.384Z,100327.94
2023-03-21T17:56:42.270Z,100324.50
2023-03-21T17:59:13.246Z,100333.13
2023-03-21T18:01:40.836Z,100334.88
2023-03-21T18:04:08.303Z,100340.03
2023-03-21T18:06:36.262Z,100336.56
2023-03-21T18:09:07.249Z,100336.56
2023-03-21T18:11:34.394Z,100327.97
2023-03-21T18:14:15.346Z,100336.59
2023-03-21T18:16:43.120Z,100331.44
2023-03-21T18:19:13.312Z,100334.91
2023-03-21T18:21:45.878Z,100343.47
2023-03-21T18:24:14.398Z,100336.63
2023-03-21T18:26:43.018Z,100340.91
2023-03-21T18:32:06.959Z,100331.47
2023-03-21T18:34:37.190Z,100336.63
2023-03-21T18:37:07.590Z,100334.88
2023-03-21T18:39:35.129Z,100334.91
2023-03-21T18:42:04.526Z,100333.19
2023-03-21T18:44:37.650Z,100333.19
2023-03-21T18:47:06.848Z,100321.16
2023-03-21T18:52:21.488Z,100322.91
2023-03-21T18:54:49.115Z,100325.44
2023-03-21T18:57:35.728Z,100317.72
2023-03-21T19:00:11.140Z,100321.16
2023-03-21T19:02:43.180Z,100322.88
2023-03-21T19:05:12.871Z,100315.16
2023-03-21T19:07:39.993Z,100322.00
2023-03-21T19:10:17.445Z,100331.47
2023-03-21T19:12:45.466Z,100322.91
2023-03-21T19:15:12.544Z,100316.00
2023-03-21T19:20:27.339Z,100322.00
2023-03-21T19:22:54.512Z,100322.03
2023-03-21T19:25:21.943Z,100324.63
2023-03-21T19:27:51.117Z,100326.31
2023-03-21T19:30:19.698Z,100329.78
2023-03-21T19:32:47.260Z,100324.63
2023-03-21T19:35:14.548Z,100322.03
2023-03-21T19:37:41.829Z,100317.72
2023-03-21T19:40:10.408Z,100324.63
2023-03-21T19:42:37.784Z,100324.63
2023-03-21T19:45:05.778Z,100317.72
2023-03-21T19:47:32.928Z,100324.63
2023-03-21T19:50:43.910Z,100327.22
2023-03-21T19:52:47.183Z,100303.13
2023-03-21T19:55:15.124Z,100321.19
2023-03-21T19:57:42.222Z,100316.03
2023-03-21T20:00:11.645Z,100307.44
2023-03-21T20:02:39.883Z,100303.97
2023-03-21T20:05:08.515Z,100311.72
2023-03-21T20:07:35.991Z,100314.31
2023-03-21T20:10:03.532Z,100320.31
2023-03-21T20:12:32.336Z,100312.59
2023-03-21T20:15:12.166Z,100300.56
2023-03-21T20:17:44.117Z,100307.44
2023-03-21T20:20:14.644Z,100306.59
2023-03-21T20:23:05.850Z,100303.16
2023-03-21T20:25:30.283Z,100304.03
2023-03-21T20:28:14.602Z,100292.84
2023-03-21T20:30:50.828Z,100307.44
2023-03-21T20:33:18.020Z,100304.88
2023-03-21T20:36:29.509Z,100298.88
2023-03-21T20:38:34.388Z,100295.44
2023-03-21T20:41:03.449Z,100298.88
2023-03-21T20:46:18.541Z,100290.28
2023-03-21T20:48:48.952Z,100283.41
2023-03-21T20:54:03.795Z,100292.00
2023-03-21T20:56:30.908Z,100286.81
2023-03-21T20:59:15.263Z,100289.41
2023-03-21T21:01:45.543Z,100282.53
2023-03-21T21:04:19.306Z,100286.84
2023-03-21T21:06:50.083Z,100281.66
2023-03-21T21:09:17.473Z,100283.38
2023-03-21T21:14:31.542Z,100281.66
2023-03-21T21:17:02.577Z,100278.25
2023-03-21T21:19:35.337Z,100274.78
2023-03-21T21:22:02.369Z,100274.78
2023-03-21T21:24:29.369Z,100275.66
2023-03-21T21:26:56.367Z,100267.91
2023-03-21T21:29:23.362Z,100259.34
2023-03-21T21:31:51.127Z,100269.63
2023-03-21T21:34:20.041Z,100271.34
2023-03-21T21:36:47.523Z,100257.63
2023-03-21T21:39:17.856Z,100256.78
2023-03-21T21:41:44.920Z,100267.94
2023-03-21T21:44:11.965Z,100264.47
2023-03-21T21:46:39.118Z,100271.38
2023-03-21T21:49:06.255Z,100264.47
2023-03-21T21:51:34.304Z,100265.34
2023-03-21T21:54:04.039Z,100266.22
2023-03-21T21:56:38.720Z,100274.78
2023-03-21T21:59:05.758Z,100259.31
2023-03-21T22:01:38.833Z,100247.31
2023-03-21T22:04:11.005Z,100267.94
2023-03-21T22:06:38.229Z,100267.06
2023-03-21T22:09:05.651Z,100270.50
2023-03-21T22:11:33.194Z,100271.38
2023-03-21T22:14:00.127Z,100269.63
2023-03-21T22:16:27.234Z,100269.66
2023-03-21T22:18:54.444Z,100263.63
2023-03-21T22:21:21.394Z,100260.22
2023-03-21T22:23:48.494Z,100268.78
2023-03-21T22:26:15.678Z,100263.63
2023-03-21T22:28:43.514Z,100264.50
2023-03-21T22:31:16.197Z,100266.22
2023-03-21T22:33:43.907Z,100274.81
2023-03-21T22:36:11.460Z,100261.91
2023-03-21T22:38:38.730Z,100255.06
2023-03-21T22:41:06.676Z,100235.28
2023-03-21T22:43:35.538Z,100256.75
2023-03-21T22:46:04.134Z,100255.88
2023-03-21T22:48:31.392Z,100258.47
2023-03-21T22:50:59.654Z,100255.91
2023-03-21T22:53:27.041Z,100245.59
2023-03-21T22:55:54.343Z,100254.16
2023-03-21T22:58:21.497Z,100238.72
2023-03-21T23:00:48.732Z,100231.00
2023-03-21T23:03:17.123Z,100231.84
2023-03-21T23:05:45.132Z,100234.41
2023-03-21T23:08:13.300Z,100225.81
2023-03-21T23:10:43.965Z,100219.81
2023-03-21T23:13:11.309Z,100223.25
2023-03-21T23:15:41.241Z,100216.41
2023-03-21T23:18:08.613Z,100218.13
2023-03-21T23:20:36.319Z,100216.38
2023-03-21T23:23:03.354Z,100211.22
2023-03-21T23:25:30.546Z,100212.09
2023-03-21T23:27:57.792Z,100206.09
2023-03-21T23:30:24.910Z,100211.25
2023-03-21T23:32:52.579Z,100203.53
2023-03-21T23:35:19.773Z,100205.22
2023-03-21T23:37:52.385Z,100204.38
2023-03-21T23:40:20.963Z,100197.50
2023-03-21T23:42:48.039Z,100184.63
2023-03-21T23:45:15.737Z,100187.22
2023-03-21T23:47:43.181Z,100194.91
2023-03-21T23:50:11.208Z,100188.06
2023-03-21T23:52:38.872Z,100192.34
2023-03-21T23:55:07.405Z,100189.75
2023-03-21T23:57:34.782Z,100188.94
